createdAt,value
2023-05-21T00:01:55.856Z,100.00
2023-05-21T00:04:23.009Z,100.00
2023-05-21T00:06:50.976Z,100.00
2023-05-21T00:09:17.582Z,100.00
2023-05-21T00:11:44.291Z,100.00
2023-05-21T00:14:10.938Z,100.00
2023-05-21T00:16:37.650Z,100.00
2023-05-21T00:19:04.572Z,100.00
2023-05-21T00:21:31.717Z,100.00
2023-05-21T00:23:58.926Z,100.00
2023-05-21T00:26:25.691Z,100.00
2023-05-21T00:28:52.297Z,100.00
2023-05-21T00:31:19.109Z,100.00
2023-05-21T00:33:45.822Z,100.00
2023-05-21T00:36:14.540Z,100.00
2023-05-21T00:38:43.873Z,100.00
2023-05-21T00:41:11.136Z,100.00
2023-05-21T00:43:42.178Z,100.00
2023-05-21T00:46:16.545Z,100.00
2023-05-21T00:48:45.985Z,100.00
2023-05-21T00:51:14.949Z,100.00
2023-05-21T00:53:41.897Z,100.00
2023-05-21T00:56:09.077Z,100.00
2023-05-21T00:58:36.349Z,100.00
2023-05-21T01:01:04.070Z,100.00
2023-05-21T01:03:31.126Z,100.00
2023-05-21T01:06:00.298Z,100.00
2023-05-21T01:08:29.010Z,100.00
2023-05-21T01:10:56.799Z,100.00
2023-05-21T01:13:24.842Z,100.00
2023-05-21T01:15:53.791Z,100.00
2023-05-21T01:18:21.573Z,100.00
2023-05-21T01:20:49.209Z,100.00
2023-05-21T01:23:19.753Z,100.00
2023-05-21T01:25:47.436Z,100.00
2023-05-21T01:28:14.893Z,100.00
2023-05-21T01:30:42.682Z,100.00
2023-05-21T01:33:22.996Z,100.00
2023-05-21T01:36:07.124Z,100.00
2023-05-21T01:38:42.583Z,100.00
2023-05-21T01:41:14.265Z,100.00
2023-05-21T01:43:44.521Z,100.00
2023-05-21T01:46:17.399Z,100.00
2023-05-21T01:48:44.331Z,100.00
2023-05-21T01:51:11.930Z,100.00
2023-05-21T01:53:41.485Z,100.00
2023-05-21T01:56:08.281Z,100.00
2023-05-21T01:58:34.925Z,100.00
2023-05-21T02:01:02.853Z,100.00
2023-05-21T02:03:31.144Z,100.00
2023-05-21T02:05:58.089Z,100.00
2023-05-21T02:08:25.680Z,100.00
2023-05-21T02:10:52.444Z,100.00
2023-05-21T02:13:25.859Z,100.00
2023-05-21T02:15:54.917Z,100.00
2023-05-21T02:18:22.348Z,100.00
2023-05-21T02:20:50.235Z,100.00
2023-05-21T02:23:16.981Z,100.00
2023-05-21T02:25:44.059Z,100.00
2023-05-21T02:28:10.722Z,100.00
2023-05-21T02:30:37.425Z,100.00
2023-05-21T02:33:04.194Z,100.00
2023-05-21T02:35:30.906Z,100.00
2023-05-21T02:37:59.393Z,100.00
2023-05-21T02:40:26.289Z,100.00
2023-05-21T02:42:52.940Z,100.00
2023-05-21T02:45:19.539Z,100.00
2023-05-21T02:47:46.218Z,100.00
2023-05-21T02:50:14.780Z,100.00
2023-05-21T02:52:41.866Z,100.00
2023-05-21T02:55:09.394Z,100.00
2023-05-21T02:57:36.128Z,100.00
2023-05-21T03:00:03.904Z,100.00
2023-05-21T03:02:30.541Z,100.00
2023-05-21T03:04:57.288Z,100.00
2023-05-21T03:07:24.368Z,100.00
2023-05-21T03:09:51.017Z,100.00
2023-05-21T03:12:17.748Z,100.00
2023-05-21T03:14:46.463Z,100.00
2023-05-21T03:17:17.225Z,100.00
2023-05-21T03:19:44.798Z,100.00
2023-05-21T03:22:11.639Z,100.00
2023-05-21T03:24:38.982Z,100.00
2023-05-21T03:27:09.013Z,100.00
2023-05-21T03:29:36.572Z,100.00
2023-05-21T03:32:03.562Z,100.00
2023-05-21T03:34:30.347Z,100.00
2023-05-21T03:36:57.134Z,100.00
2023-05-21T03:39:23.905Z,100.00
2023-05-21T03:41:50.853Z,100.00
2023-05-21T03:44:18.051Z,100.00
2023-05-21T03:46:45.682Z,100.00
2023-05-21T03:49:12.557Z,100.00
2023-05-21T03:51:39.718Z,100.00
2023-05-21T03:54:06.571Z,100.00
2023-05-21T03:56:33.250Z,100.00
2023-05-21T03:58:59.953Z,100.00
2023-05-21T04:01:28.525Z,100.00
2023-05-21T04:03:55.687Z,100.00
2023-05-21T04:06:22.856Z,100.00
2023-05-21T04:08:49.950Z,100.00
2023-05-21T04:11:16.883Z,100.00
2023-05-21T04:13:43.552Z,100.00
2023-05-21T04:16:10.665Z,100.00
2023-05-21T04:18:37.714Z,100.00
2023-05-21T04:21:04.612Z,100.00
2023-05-21T04:23:31.366Z,100.00
2023-05-21T04:25:58.433Z,100.00
2023-05-21T04:28:28.995Z,100.00
2023-05-21T04:30:56.677Z,100.00
2023-05-21T04:33:23.392Z,100.00
2023-05-21T04:35:53.934Z,100.00
2023-05-21T04:38:20.647Z,100.00
2023-05-21T04:40:51.031Z,100.00
2023-05-21T04:43:18.448Z,100.00
2023-05-21T04:45:45.748Z,100.00
2023-05-21T04:48:12.804Z,100.00
2023-05-21T04:50:41.624Z,100.00
2023-05-21T04:53:08.463Z,100.00
2023-05-21T04:55:39.840Z,100.00
2023-05-21T04:58:07.449Z,100.00
2023-05-21T05:00:34.637Z,100.00
2023-05-21T05:03:01.457Z,100.00
2023-05-21T05:05:28.137Z,100.00
2023-05-21T05:07:54.802Z,100.00
2023-05-21T05:10:21.570Z,100.00
2023-05-21T05:12:49.252Z,100.00
2023-05-21T05:15:16.161Z,100.00
2023-05-21T05:17:42.886Z,100.00
2023-05-21T05:20:10.748Z,100.00
2023-05-21T05:22:37.538Z,100.00
2023-05-21T05:25:04.437Z,100.00
2023-05-21T05:27:31.079Z,100.00
2023-05-21T05:29:57.694Z,99.44
2023-05-21T05:35:09.109Z,97.39
2023-05-21T05:37:35.827Z,94.81
2023-05-21T05:40:02.544Z,92.35
2023-05-21T05:42:29.236Z,93.17
2023-05-21T05:44:56.267Z,90.87
2023-05-21T05:47:22.964Z,89.24
2023-05-21T05:49:49.702Z,87.13
2023-05-21T05:52:16.458Z,85.16
2023-05-21T05:54:43.058Z,84.37
2023-05-21T05:57:10.027Z,81.09
2023-05-21T05:59:36.865Z,79.13
2023-05-21T06:02:03.806Z,77.60
2023-05-21T06:04:30.454Z,69.99
2023-05-21T06:06:57.933Z,57.41
2023-05-21T06:09:24.812Z,54.50
2023-05-21T06:11:51.628Z,52.50
2023-05-21T06:14:18.558Z,55.01
2023-05-21T06:16:45.570Z,53.00
2023-05-21T06:19:12.392Z,53.92
2023-05-21T06:21:39.037Z,53.17
2023-05-21T06:24:06.167Z,53.68
2023-05-21T06:26:32.876Z,52.90
2023-05-21T06:28:59.641Z,55.10
2023-05-21T06:31:26.383Z,55.13
2023-05-21T06:33:53.640Z,55.97
2023-05-21T06:36:20.462Z,58.17
2023-05-21T06:38:48.003Z,60.27
2023-05-21T06:41:14.831Z,59.29
2023-05-21T06:43:41.945Z,60.55
2023-05-21T06:46:09.268Z,60.40
2023-05-21T06:48:36.147Z,60.79
2023-05-21T06:51:02.962Z,62.33
2023-05-21T06:53:29.721Z,62.42
2023-05-21T06:55:56.491Z,62.80
2023-05-21T06:58:23.266Z,62.26
2023-05-21T07:00:53.010Z,60.76
2023-05-21T07:03:20.121Z,61.78
2023-05-21T07:05:47.294Z,62.60
2023-05-21T07:08:14.302Z,60.61
2023-05-21T07:10:41.101Z,59.51
2023-05-21T07:13:07.904Z,58.05
2023-05-21T07:15:34.694Z,58.37
2023-05-21T07:18:01.435Z,57.94
2023-05-21T07:20:28.384Z,58.70
2023-05-21T07:22:55.018Z,59.09
2023-05-21T07:25:21.835Z,59.62
2023-05-21T07:27:48.720Z,57.45
2023-05-21T07:30:15.866Z,57.23
2023-05-21T07:32:42.730Z,58.46
2023-05-21T07:35:09.788Z,58.94
2023-05-21T07:37:36.484Z,59.47
2023-05-21T07:40:04.095Z,59.49
2023-05-21T07:42:31.243Z,59.47
2023-05-21T07:44:58.351Z,58.94
2023-05-21T07:47:25.012Z,57.28
2023-05-21T07:49:51.747Z,56.50
2023-05-21T07:52:18.573Z,56.76
2023-05-21T07:54:45.577Z,57.53
2023-05-21T07:57:12.643Z,58.81
2023-05-21T07:59:39.372Z,57.95
2023-05-21T08:02:06.354Z,56.10
2023-05-21T08:04:33.073Z,55.26
2023-05-21T08:06:59.857Z,58.10
2023-05-21T08:09:26.425Z,56.78
2023-05-21T08:11:53.615Z,56.68
2023-05-21T08:14:20.252Z,56.53
2023-05-21T08:16:47.019Z,56.45
2023-05-21T08:19:13.781Z,55.99
2023-05-21T08:21:40.729Z,56.15
2023-05-21T08:24:07.487Z,56.08
2023-05-21T08:26:34.290Z,56.08
2023-05-21T08:29:01.155Z,56.75
2023-05-21T08:31:28.230Z,56.08
2023-05-21T08:33:56.586Z,56.39
2023-05-21T08:36:25.067Z,56.94
2023-05-21T08:38:51.743Z,56.32
2023-05-21T08:41:23.256Z,56.51
2023-05-21T08:43:58.071Z,56.90
2023-05-21T08:46:26.009Z,56.40
2023-05-21T08:48:56.025Z,55.75
2023-05-21T08:51:22.900Z,54.86
2023-05-21T08:53:51.081Z,53.61
2023-05-21T08:56:18.371Z,53.77
2023-05-21T08:58:46.815Z,53.86
2023-05-21T09:01:14.215Z,54.47
2023-05-21T09:03:41.168Z,54.32
2023-05-21T09:06:11.343Z,54.46
2023-05-21T09:08:44.009Z,54.89
2023-05-21T09:11:11.206Z,55.60
2023-05-21T09:13:43.680Z,55.59
2023-05-21T09:16:10.971Z,55.92
2023-05-21T09:18:37.678Z,56.52
2023-05-21T09:21:24.762Z,56.44
2023-05-21T09:23:56.342Z,54.86
2023-05-21T09:26:24.020Z,55.25
2023-05-21T09:28:51.971Z,54.94
2023-05-21T09:31:18.797Z,54.26
2023-05-21T09:33:48.347Z,55.15
2023-05-21T09:36:15.447Z,55.01
2023-05-21T09:38:42.136Z,55.00
2023-05-21T09:41:09.015Z,55.77
2023-05-21T09:43:36.881Z,55.41
2023-05-21T09:46:04.495Z,54.64
2023-05-21T09:48:38.000Z,53.86
2023-05-21T09:51:18.102Z,53.52
2023-05-21T09:53:48.991Z,53.51
2023-05-21T09:56:16.982Z,54.49
2023-05-21T09:58:44.533Z,54.20
2023-05-21T10:01:11.587Z,53.81
2023-05-21T10:03:40.397Z,53.86
2023-05-21T10:06:09.519Z,53.52
2023-05-21T10:08:40.295Z,53.03
2023-05-21T10:11:07.330Z,52.60
2023-05-21T10:13:39.887Z,52.50
2023-05-21T10:16:07.181Z,53.30
2023-05-21T10:18:35.383Z,52.95
2023-05-21T10:21:02.985Z,53.27
2023-05-21T10:23:30.327Z,54.23
2023-05-21T10:25:58.421Z,54.31
2023-05-21T10:28:25.983Z,54.51
2023-05-21T10:30:54.529Z,54.79
2023-05-21T10:33:24.509Z,54.84
2023-05-21T10:35:53.430Z,54.88
2023-05-21T10:38:21.272Z,54.26
2023-05-21T10:40:49.639Z,53.80
2023-05-21T10:43:39.025Z,53.35
2023-05-21T10:46:26.985Z,54.71
2023-05-21T10:49:18.034Z,54.90
2023-05-21T10:51:56.579Z,55.12
2023-05-21T10:54:57.438Z,55.59
2023-05-21T10:58:02.893Z,55.67
2023-05-21T11:00:31.694Z,55.24
2023-05-21T11:03:00.059Z,55.70
2023-05-21T11:05:54.870Z,56.01
2023-05-21T11:08:25.962Z,56.05
2023-05-21T11:10:58.142Z,56.29
2023-05-21T11:13:28.703Z,56.38
2023-05-21T11:15:59.017Z,56.27
2023-05-21T11:18:38.114Z,56.38
2023-05-21T11:21:16.368Z,56.17
2023-05-21T11:23:52.780Z,56.05
2023-05-21T11:26:21.861Z,56.17
2023-05-21T11:29:07.334Z,56.09
2023-05-21T11:31:38.919Z,55.52
2023-05-21T11:34:13.211Z,56.10
2023-05-21T11:36:46.011Z,56.32
2023-05-21T11:39:26.484Z,56.05
2023-05-21T11:41:54.317Z,56.71
2023-05-21T11:44:40.879Z,56.40
2023-05-21T11:47:09.711Z,56.91
2023-05-21T11:49:37.181Z,56.42
2023-05-21T11:52:05.751Z,56.38
2023-05-21T11:54:37.053Z,56.45
2023-05-21T11:57:10.298Z,56.80
2023-05-21T11:59:37.249Z,57.32
2023-05-21T12:02:05.268Z,57.36
2023-05-21T12:04:33.244Z,57.39
2023-05-21T12:07:04.231Z,57.79
2023-05-21T12:09:30.853Z,58.96
2023-05-21T12:11:57.510Z,59.03
2023-05-21T12:14:24.309Z,58.79
2023-05-21T12:16:51.053Z,59.15
2023-05-21T12:19:19.243Z,58.97
2023-05-21T12:21:46.497Z,59.16
2023-05-21T12:24:13.495Z,59.28
2023-05-21T12:26:42.175Z,59.48
2023-05-21T12:29:08.928Z,59.57
2023-05-21T12:31:48.332Z,59.46
2023-05-21T12:34:18.822Z,59.49
2023-05-21T12:36:51.919Z,59.24
2023-05-21T12:39:20.440Z,59.80
2023-05-21T12:41:47.438Z,59.14
2023-05-21T12:44:14.342Z,59.42
2023-05-21T12:46:41.545Z,58.58
2023-05-21T12:49:08.995Z,57.75
2023-05-21T12:51:40.075Z,58.89
2023-05-21T12:54:13.146Z,58.66
2023-05-21T12:56:46.190Z,58.52
2023-05-21T12:59:15.551Z,58.66
2023-05-21T13:01:42.292Z,59.08
2023-05-21T13:04:09.572Z,58.73
2023-05-21T13:06:45.865Z,58.86
2023-05-21T13:09:13.412Z,59.26
2023-05-21T13:11:40.441Z,60.45
2023-05-21T13:14:07.147Z,59.94
2023-05-21T13:16:34.436Z,60.25
2023-05-21T13:19:01.169Z,60.33
2023-05-21T13:21:27.847Z,60.56
2023-05-21T13:23:54.481Z,59.82
2023-05-21T13:26:21.656Z,60.17
2023-05-21T13:28:48.347Z,60.97
2023-05-21T13:31:16.282Z,60.22
2023-05-21T13:33:43.052Z,60.25
2023-05-21T13:36:09.868Z,59.74
2023-05-21T13:38:36.557Z,60.51
2023-05-21T13:41:03.310Z,60.77
2023-05-21T13:43:30.054Z,60.07
2023-05-21T13:45:57.234Z,60.35
2023-05-21T13:48:24.145Z,59.75
2023-05-21T13:50:50.875Z,60.15
2023-05-21T13:53:17.559Z,59.82
2023-05-21T13:55:44.214Z,58.83
2023-05-21T13:58:10.950Z,59.25
2023-05-21T14:00:38.273Z,58.93
2023-05-21T14:03:08.027Z,59.77
2023-05-21T14:05:34.749Z,60.10
2023-05-21T14:08:01.772Z,59.26
2023-05-21T14:10:28.438Z,59.37
2023-05-21T14:13:01.532Z,59.13
2023-05-21T14:15:34.452Z,58.98
2023-05-21T14:18:01.324Z,59.83
2023-05-21T14:20:27.981Z,61.22
2023-05-21T14:22:54.923Z,62.70
2023-05-21T14:25:21.976Z,61.70
2023-05-21T14:27:48.605Z,61.14
2023-05-21T14:30:15.396Z,60.33
2023-05-21T14:32:42.084Z,60.78
2023-05-21T14:35:09.000Z,59.97
2023-05-21T14:37:35.702Z,59.76
2023-05-21T14:40:03.147Z,59.76
2023-05-21T14:42:30.709Z,60.05
2023-05-21T14:44:58.958Z,59.71
2023-05-21T14:47:28.862Z,59.34
2023-05-21T14:49:55.686Z,59.54
2023-05-21T14:52:22.338Z,59.82
2023-05-21T14:54:49.263Z,60.04
2023-05-21T14:57:17.020Z,60.13
2023-05-21T14:59:43.718Z,60.43
2023-05-21T15:02:11.361Z,60.92
2023-05-21T15:04:38.196Z,60.78
2023-05-21T15:07:05.019Z,60.70
2023-05-21T15:09:31.678Z,60.66
2023-05-21T15:11:58.369Z,60.37
2023-05-21T15:14:25.399Z,60.93
2023-05-21T15:16:52.874Z,60.74
2023-05-21T15:19:19.730Z,60.54
2023-05-21T15:21:46.742Z,60.83
2023-05-21T15:24:13.424Z,61.04
2023-05-21T15:26:40.181Z,61.15
2023-05-21T15:29:06.897Z,61.65
2023-05-21T15:31:33.684Z,61.78
2023-05-21T15:34:00.600Z,61.75
2023-05-21T15:36:27.363Z,62.07
2023-05-21T15:38:54.647Z,61.95
2023-05-21T15:41:22.512Z,62.66
2023-05-21T15:43:50.084Z,62.56
2023-05-21T15:46:16.745Z,62.13
2023-05-21T15:48:45.039Z,61.57
2023-05-21T15:51:11.748Z,61.47
2023-05-21T15:53:38.510Z,61.85
2023-05-21T15:56:05.533Z,61.42
2023-05-21T15:58:32.301Z,61.18
2023-05-21T16:00:59.781Z,61.31
2023-05-21T16:03:28.232Z,61.28
2023-05-21T16:05:54.925Z,61.35
2023-05-21T16:08:21.771Z,61.16
2023-05-21T16:10:48.495Z,60.61
2023-05-21T16:13:15.458Z,59.38
2023-05-21T16:15:42.269Z,59.88
2023-05-21T16:18:10.089Z,59.81
2023-05-21T16:20:37.324Z,59.85
2023-05-21T16:23:06.413Z,60.28
2023-05-21T16:25:34.631Z,60.12
2023-05-21T16:28:02.526Z,60.61
2023-05-21T16:30:29.682Z,60.94
2023-05-21T16:32:56.297Z,61.09
2023-05-21T16:35:23.012Z,61.32
2023-05-21T16:37:50.085Z,61.59
2023-05-21T16:40:16.739Z,61.68
2023-05-21T16:42:43.817Z,61.89
2023-05-21T16:45:15.758Z,62.14
2023-05-21T16:47:42.632Z,62.31
2023-05-21T16:50:09.845Z,62.44
2023-05-21T16:52:36.552Z,62.51
2023-05-21T16:55:03.707Z,62.60
2023-05-21T16:57:30.395Z,62.41
2023-05-21T16:59:59.483Z,62.46
2023-05-21T17:02:26.231Z,62.56
2023-05-21T17:04:53.321Z,62.90
2023-05-21T17:07:20.050Z,62.92
2023-05-21T17:09:47.111Z,63.10
2023-05-21T17:12:14.712Z,62.87
2023-05-21T17:14:41.393Z,63.13
2023-05-21T17:17:08.246Z,63.26
2023-05-21T17:19:35.044Z,63.35
2023-05-21T17:22:01.839Z,63.40
2023-05-21T17:24:28.527Z,63.13
2023-05-21T17:26:55.384Z,63.51
2023-05-21T17:29:22.096Z,63.30
2023-05-21T17:31:49.056Z,63.53
2023-05-21T17:34:16.671Z,63.53
2023-05-21T17:36:43.567Z,63.80
2023-05-21T17:39:10.258Z,63.91
2023-05-21T17:41:37.291Z,63.94
2023-05-21T17:44:04.262Z,63.95
2023-05-21T17:46:31.414Z,64.10
2023-05-21T17:48:58.537Z,64.24
2023-05-21T17:51:25.226Z,65.17
2023-05-21T17:53:54.946Z,65.75
2023-05-21T17:56:21.698Z,66.22
2023-05-21T17:58:51.269Z,66.78
2023-05-21T18:01:18.494Z,67.06
2023-05-21T18:03:45.561Z,67.18
2023-05-21T18:06:12.388Z,67.48
2023-05-21T18:08:39.037Z,67.78
2023-05-21T18:11:05.729Z,68.51
2023-05-21T18:13:32.772Z,68.95
2023-05-21T18:15:59.691Z,69.02
2023-05-21T18:18:26.403Z,69.40
2023-05-21T18:20:53.681Z,69.77
2023-05-21T18:23:22.155Z,69.78
2023-05-21T18:25:48.904Z,69.90
2023-05-21T18:28:16.172Z,70.42
2023-05-21T18:30:42.994Z,70.81
2023-05-21T18:33:13.219Z,70.27
2023-05-21T18:35:40.937Z,70.16
2023-05-21T18:38:11.975Z,70.08
2023-05-21T18:40:39.411Z,70.20
2023-05-21T18:43:06.558Z,70.29
2023-05-21T18:45:34.564Z,69.78
2023-05-21T18:48:03.130Z,70.35
2023-05-21T18:50:30.105Z,70.02
2023-05-21T18:52:56.898Z,70.16
2023-05-21T18:55:23.803Z,70.56
2023-05-21T18:57:50.911Z,70.72
2023-05-21T19:00:18.302Z,71.55
2023-05-21T19:02:46.411Z,71.39
2023-05-21T19:05:13.626Z,71.47
2023-05-21T19:07:43.386Z,71.81
2023-05-21T19:10:11.659Z,72.39
2023-05-21T19:12:39.893Z,73.36
2023-05-21T19:15:07.464Z,73.71
2023-05-21T19:17:36.236Z,73.45
2023-05-21T19:20:05.508Z,73.37
2023-05-21T19:22:32.981Z,73.71
2023-05-21T19:25:00.815Z,73.66
2023-05-21T19:27:29.746Z,73.69
2023-05-21T19:29:56.748Z,73.77
2023-05-21T19:32:23.859Z,73.53
2023-05-21T19:34:51.624Z,74.21
2023-05-21T19:37:18.664Z,74.05
2023-05-21T19:39:49.673Z,73.77
2023-05-21T19:42:17.540Z,73.82
2023-05-21T19:44:44.802Z,73.87
2023-05-21T19:47:11.409Z,73.86
2023-05-21T19:49:38.617Z,73.53
2023-05-21T19:52:06.044Z,73.25
2023-05-21T19:54:32.700Z,73.73
2023-05-21T19:57:00.163Z,73.86
2023-05-21T19:59:31.114Z,74.20
2023-05-21T20:01:58.476Z,75.33
2023-05-21T20:04:25.696Z,75.86
2023-05-21T20:06:52.437Z,76.86
2023-05-21T20:09:20.668Z,77.96
2023-05-21T20:11:49.249Z,78.78
2023-05-21T20:14:16.037Z,78.38
2023-05-21T20:16:47.261Z,78.69
2023-05-21T20:19:15.550Z,78.94
2023-05-21T20:21:42.296Z,79.21
2023-05-21T20:24:09.131Z,79.75
2023-05-21T20:26:37.493Z,80.03
2023-05-21T20:29:04.542Z,79.77
2023-05-21T20:31:31.896Z,80.30
2023-05-21T20:33:58.930Z,80.55
2023-05-21T20:36:25.953Z,81.05
2023-05-21T20:38:52.767Z,81.14
2023-05-21T20:41:20.231Z,81.55
2023-05-21T20:43:47.387Z,82.07
2023-05-21T20:46:14.486Z,82.13
2023-05-21T20:48:41.843Z,82.28
2023-05-21T20:51:08.949Z,82.66
2023-05-21T20:53:35.746Z,82.59
2023-05-21T20:56:02.551Z,82.81
2023-05-21T20:58:29.269Z,82.72
2023-05-21T21:00:57.447Z,83.02
2023-05-21T21:03:24.449Z,83.13
2023-05-21T21:05:52.886Z,83.35
2023-05-21T21:08:19.837Z,83.51
2023-05-21T21:10:47.012Z,83.35
2023-05-21T21:13:14.772Z,84.02
2023-05-21T21:15:43.191Z,84.13
2023-05-21T21:18:13.069Z,83.57
2023-05-21T21:20:41.662Z,83.81
2023-05-21T21:23:09.068Z,84.21
2023-05-21T21:25:36.000Z,84.24
2023-05-21T21:28:02.718Z,84.56
2023-05-21T21:30:29.334Z,86.00
2023-05-21T21:32:56.246Z,86.66
2023-05-21T21:35:22.979Z,87.56
2023-05-21T21:37:49.861Z,88.16
2023-05-21T21:40:16.642Z,88.79
2023-05-21T21:42:45.383Z,89.77
2023-05-21T21:45:13.380Z,89.80
2023-05-21T21:47:40.271Z,90.23
2023-05-21T21:50:08.226Z,90.02
2023-05-21T21:52:34.949Z,90.13
2023-05-21T21:55:01.731Z,90.45
2023-05-21T21:57:30.201Z,90.44
2023-05-21T21:59:57.546Z,91.85
2023-05-21T22:02:26.295Z,93.23
2023-05-21T22:04:53.045Z,93.05
2023-05-21T22:07:19.936Z,93.86
2023-05-21T22:09:46.691Z,94.16
2023-05-21T22:12:13.634Z,95.03
2023-05-21T22:14:40.675Z,95.21
2023-05-21T22:17:08.791Z,95.19
2023-05-21T22:19:36.498Z,95.91
2023-05-21T22:22:05.013Z,96.88
2023-05-21T22:24:33.391Z,96.99
2023-05-21T22:27:00.767Z,96.23
2023-05-21T22:29:27.930Z,97.26
2023-05-21T22:31:54.840Z,97.42
2023-05-21T22:34:22.449Z,97.47
2023-05-21T22:36:49.266Z,98.16
2023-05-21T22:39:15.960Z,98.53
2023-05-21T22:41:42.893Z,99.12
2023-05-21T22:44:10.838Z,100.00
2023-05-21T22:46:38.445Z,100.00
2023-05-21T22:49:05.212Z,100.00
2023-05-21T22:51:34.959Z,100.00
2023-05-21T22:54:01.983Z,100.00
2023-05-21T22:56:29.038Z,100.00
2023-05-21T22:58:56.722Z,100.00
2023-05-21T23:01:24.040Z,100.00
2023-05-21T23:03:51.840Z,100.00
2023-05-21T23:06:19.236Z,100.00
2023-05-21T23:08:46.108Z,100.00
2023-05-21T23:11:13.611Z,100.00
2023-05-21T23:13:40.541Z,100.00
2023-05-21T23:16:07.693Z,100.00
2023-05-21T23:18:35.748Z,100.00
2023-05-21T23:21:02.634Z,100.00
2023-05-21T23:23:29.546Z,100.00
2023-05-21T23:25:57.834Z,100.00
2023-05-21T23:28:25.814Z,100.00
2023-05-21T23:30:53.460Z,100.00
2023-05-21T23:33:20.665Z,100.00
2023-05-21T23:35:47.621Z,100.00
2023-05-21T23:38:14.528Z,100.00
2023-05-21T23:40:41.859Z,100.00
2023-05-21T23:43:08.544Z,100.00
2023-05-21T23:45:37.205Z,100.00
2023-05-21T23:48:04.317Z,100.00
2023-05-21T23:50:31.216Z,100.00
2023-05-21T23:52:58.919Z,100.00
2023-05-21T23:55:25.845Z,100.00
2023-05-21T23:57:52.719Z,100.00
